createdAt,value
2016-04-22T00:00:25.382Z,63.39
2016-04-22T00:01:25.400Z,63.35
2016-04-22T00:02:25.450Z,63.64
2016-04-22T00:03:25.499Z,64.02
2016-04-22T00:04:25.527Z,63.83
2016-04-22T00:05:25.576Z,63.92
2016-04-22T00:06:25.626Z,64.21
2016-04-22T00:07:25.692Z,64.21
2016-04-22T00:08:25.678Z,64.69
2016-04-22T00:09:25.712Z,64.5
2016-04-22T00:10:25.762Z,64.31
2016-04-22T00:11:25.796Z,65.06
2016-04-22T00:12:25.830Z,64.78
2016-04-22T00:13:25.864Z,64.69
2016-04-22T00:14:25.930Z,64.97
2016-04-22T00:15:25.947Z,65.06
2016-04-22T00:16:25.981Z,64.69
2016-04-22T00:17:26.015Z,65.16
2016-04-22T00:18:26.066Z,65.25
2016-04-22T00:19:26.099Z,65.35
2016-04-22T00:20:25.367Z,65.64
2016-04-22T00:21:26.182Z,65.45
2016-04-22T00:22:26.216Z,65.54
2016-04-22T00:23:26.250Z,65.54
2016-04-22T00:24:26.300Z,65.35
2016-04-22T00:25:26.365Z,65.64
2016-04-22T00:26:26.368Z,65.54
2016-04-22T00:27:26.402Z,65.64
2016-04-22T00:28:26.451Z,65.45
2016-04-22T00:29:26.516Z,65.54
2016-04-22T00:30:26.519Z,65.35
2016-04-22T00:31:26.585Z,65.73
2016-04-22T00:32:26.603Z,65.25
2016-04-22T00:33:26.637Z,65.41
2016-04-22T00:34:26.686Z,65.7
2016-04-22T00:35:26.720Z,65.7
2016-04-22T00:36:26.802Z,65.8
2016-04-22T00:37:26.789Z,65.99
2016-04-22T00:38:26.839Z,65.8
2016-04-22T00:39:26.872Z,65.7
2016-04-22T00:40:26.922Z,65.7
2016-04-22T00:41:26.957Z,65.99
2016-04-22T00:42:27.005Z,66.27
2016-04-22T00:43:27.023Z,65.99
2016-04-22T00:44:27.058Z,66.55
2016-04-22T00:45:27.107Z,66.36
2016-04-22T00:46:27.157Z,66.36
2016-04-22T00:47:27.190Z,66.46
2016-04-22T00:48:27.225Z,66.74
2016-04-22T00:49:27.258Z,66.46
2016-04-22T00:50:27.340Z,66.74
2016-04-22T00:51:27.342Z,66.36
2016-04-22T00:52:27.376Z,66.84
2016-04-22T00:53:27.426Z,67.6
2016-04-22T00:54:27.476Z,67.03
2016-04-22T00:55:27.494Z,67.41
2016-04-22T00:56:27.527Z,68.07
2016-04-22T00:57:27.561Z,67.6
2016-04-22T00:58:27.595Z,67.79
2016-04-22T00:59:27.645Z,67.13
2016-04-22T01:00:27.678Z,67.13
2016-04-22T01:01:27.744Z,67.88
2016-04-22T01:02:27.762Z,68.07
2016-04-22T01:03:27.796Z,68.27
2016-04-22T01:04:27.830Z,67.98
2016-04-22T01:05:27.864Z,67.98
2016-04-22T01:06:27.898Z,67.79
2016-04-22T01:07:27.947Z,67.88
2016-04-22T01:08:28.029Z,67.6
2016-04-22T01:09:28.031Z,68.07
2016-04-22T01:10:28.096Z,68.07
2016-04-22T01:11:28.115Z,68.07
2016-04-22T01:12:28.165Z,67.79
2016-04-22T01:13:28.167Z,67.98
2016-04-22T01:14:28.216Z,68.27
2016-04-22T01:15:28.313Z,68.07
2016-04-22T01:16:28.284Z,68.27
2016-04-22T01:17:28.318Z,68.46
2016-04-22T01:18:28.368Z,68.46
2016-04-22T01:19:28.433Z,68.17
2016-04-22T01:20:28.451Z,68.46
2016-04-22T01:21:28.470Z,68.27
2016-04-22T01:22:28.520Z,68.17
2016-04-22T01:23:28.553Z,68.74
2016-04-22T01:24:28.587Z,68.65
2016-04-22T01:25:28.621Z,68.61
2016-04-22T01:26:28.686Z,68.46
2016-04-22T01:27:28.705Z,68.93
2016-04-22T01:28:28.739Z,69.37
2016-04-22T01:29:28.819Z,69.09
2016-04-22T01:30:28.822Z,69.27
2016-04-22T01:31:28.856Z,69.46
2016-04-22T01:32:28.889Z,69.66
2016-04-22T01:33:28.939Z,69.94
2016-04-22T01:34:28.974Z,69.94
2016-04-22T01:35:29.008Z,70.04
2016-04-22T01:36:29.057Z,70.13
2016-04-22T01:37:29.107Z,70.13
2016-04-22T01:38:29.125Z,70.13
2016-04-22T01:39:29.158Z,69.85
2016-04-22T01:40:29.208Z,69.75
2016-04-22T01:41:29.243Z,70.13
2016-04-22T01:42:29.277Z,70.32
2016-04-22T01:43:29.310Z,70.04
2016-04-22T01:44:29.376Z,70.04
2016-04-22T01:45:29.643Z,70.04
2016-04-22T01:46:29.427Z,69.85
2016-04-22T01:47:29.477Z,69.75
2016-04-22T01:48:29.527Z,69.94
2016-04-22T01:49:29.670Z,69.66
2016-04-22T01:50:29.579Z,69.94
2016-04-22T01:51:29.629Z,69.94
2016-04-22T01:52:29.647Z,69.75
2016-04-22T01:53:29.681Z,69.85
2016-04-22T01:54:29.731Z,69.75
2016-04-22T01:55:29.796Z,69.94
2016-04-22T01:56:29.798Z,69.75
2016-04-22T01:57:29.676Z,69.75
2016-04-22T01:58:29.881Z,69.56
2016-04-22T01:59:29.916Z,70.04
2016-04-22T02:00:29.950Z,69.94
2016-04-22T02:01:29.984Z,69.94
2016-04-22T02:02:30.049Z,70.04
2016-04-22T02:03:30.067Z,69.94
2016-04-22T02:04:30.101Z,69.75
2016-04-22T02:05:30.182Z,70.13
2016-04-22T02:06:30.216Z,70.13
2016-04-22T02:07:30.219Z,69.94
2016-04-22T02:08:30.253Z,69.94
2016-04-22T02:09:30.318Z,69.94
2016-04-22T02:10:30.336Z,69.94
2016-04-22T02:11:30.370Z,69.75
2016-04-22T02:12:30.404Z,69.66
2016-04-22T02:13:30.485Z,69.37
2016-04-22T02:14:30.488Z,69.94
2016-04-22T02:15:30.521Z,69.56
2016-04-22T02:16:30.555Z,69.94
2016-04-22T02:17:30.621Z,69.75
2016-04-22T02:18:30.638Z,69.75
2016-04-22T02:19:30.673Z,69.85
2016-04-22T02:20:30.754Z,69.85
2016-04-22T02:21:30.741Z,69.56
2016-04-22T02:22:30.790Z,69.66
2016-04-22T02:23:30.824Z,69.46
2016-04-22T02:24:30.920Z,69.46
2016-04-22T02:25:30.892Z,69.46
2016-04-22T02:26:30.942Z,69.27
2016-04-22T02:27:30.976Z,69.56
2016-04-22T02:28:31.103Z,69.46
2016-04-22T02:29:31.043Z,69.56
2016-04-22T02:30:31.093Z,69.46
2016-04-22T02:31:31.158Z,68.99
2016-04-22T02:32:31.208Z,69.27
2016-04-22T02:33:31.194Z,69.46
2016-04-22T02:34:31.228Z,69.18
2016-04-22T02:35:31.278Z,69.56
2016-04-22T02:36:31.328Z,69.18
2016-04-22T02:37:31.346Z,69.43
2016-04-22T02:38:31.380Z,68.8
2016-04-22T02:39:31.430Z,68.71
2016-04-22T02:40:31.463Z,69.09
2016-04-22T02:41:31.497Z,69.53
2016-04-22T02:42:31.563Z,68.9
2016-04-22T02:43:31.566Z,68.8
2016-04-22T02:44:31.615Z,68.77
2016-04-22T02:45:31.649Z,68.58
2016-04-22T02:46:30.948Z,69.53
2016-04-22T02:47:31.732Z,68.77
2016-04-22T02:48:31.766Z,68.86
2016-04-22T02:49:31.800Z,69.24
2016-04-22T02:50:31.849Z,69.43
2016-04-22T02:51:31.884Z,68.77
2016-04-22T02:52:31.918Z,68.48
2016-04-22T02:53:31.967Z,68.39
2016-04-22T02:54:32.001Z,68.58
2016-04-22T02:55:32.019Z,68.48
2016-04-22T02:56:32.070Z,68.39
2016-04-22T02:57:32.104Z,68.67
2016-04-22T02:58:32.167Z,68.58
2016-04-22T02:59:32.171Z,68.86
2016-04-22T03:00:32.220Z,69.43
2016-04-22T03:01:32.286Z,69.53
2016-04-22T03:02:32.289Z,69.24
2016-04-22T03:03:32.322Z,68.48
2016-04-22T03:04:32.356Z,69.24
2016-04-22T03:05:32.452Z,68.67
2016-04-22T03:06:32.439Z,68.58
2016-04-22T03:07:32.474Z,68.58
2016-04-22T03:08:32.554Z,68.48
2016-04-22T03:09:32.557Z,68.58
2016-04-22T03:10:32.591Z,68.58
2016-04-22T03:11:32.625Z,69.15
2016-04-22T03:12:32.534Z,68.48
2016-04-22T03:13:32.708Z,68.39
2016-04-22T03:14:32.743Z,68.48
2016-04-22T03:15:32.777Z,68.86
2016-04-22T03:16:32.826Z,68.67
2016-04-22T03:17:32.860Z,68.67
2016-04-22T03:18:32.894Z,68.39
2016-04-22T03:19:32.927Z,68.01
2016-04-22T03:20:33.009Z,68.19
2016-04-22T03:21:32.996Z,68.29
2016-04-22T03:22:33.045Z,68.1
2016-04-22T03:23:33.079Z,68.01
2016-04-22T03:24:33.129Z,68.96
2016-04-22T03:25:33.163Z,68.48
2016-04-22T03:26:33.182Z,68.67
2016-04-22T03:27:33.246Z,68.67
2016-04-22T03:28:33.265Z,68.77
2016-04-22T03:29:33.298Z,68.77
2016-04-22T03:30:33.332Z,68.67
2016-04-22T03:31:33.429Z,68.86
2016-04-22T03:32:33.416Z,68.58
2016-04-22T03:33:33.450Z,68.77
2016-04-22T03:34:33.483Z,69.24
2016-04-22T03:35:33.533Z,68.86
2016-04-22T03:36:33.567Z,69.34
2016-04-22T03:37:33.600Z,69.24
2016-04-22T03:38:33.683Z,69.15
2016-04-22T03:39:33.700Z,68.86
2016-04-22T03:40:33.719Z,69.62
2016-04-22T03:41:33.753Z,69.43
2016-04-22T03:42:33.786Z,68.86
2016-04-22T03:43:33.836Z,69.62
2016-04-22T03:44:33.855Z,68.86
2016-04-22T03:45:33.904Z,69.15
2016-04-22T03:46:33.938Z,68.96
2016-04-22T03:47:33.972Z,69.24
2016-04-22T03:48:34.005Z,69.15
2016-04-22T03:49:34.040Z,69.05
2016-04-22T03:50:34.135Z,69.15
2016-04-22T03:51:34.123Z,69.05
2016-04-22T03:52:34.157Z,69.34
2016-04-22T03:53:34.191Z,69.15
2016-04-22T03:54:34.241Z,69.34
2016-04-22T03:55:34.275Z,68.86
2016-04-22T03:56:34.324Z,69.24
2016-04-22T03:57:34.343Z,69.43
2016-04-22T03:58:34.392Z,68.96
2016-04-22T03:59:34.426Z,69.43
2016-04-22T04:00:34.460Z,69.34
2016-04-22T04:01:34.494Z,69.34
2016-04-22T04:02:34.528Z,69.43
2016-04-22T04:03:34.561Z,69.34
2016-04-22T04:04:34.595Z,69.53
2016-04-22T04:05:34.692Z,69.53
2016-04-22T04:06:34.678Z,69.43
2016-04-22T04:07:34.714Z,69.43
2016-04-22T04:08:34.747Z,69.43
2016-04-22T04:09:34.828Z,69.53
2016-04-22T04:10:34.831Z,70
2016-04-22T04:11:34.864Z,69.71
2016-04-22T04:12:34.914Z,69.53
2016-04-22T04:13:34.932Z,69.71
2016-04-22T04:14:34.982Z,69.71
2016-04-22T04:15:35.000Z,69.43
2016-04-22T04:16:35.065Z,69.34
2016-04-22T04:17:35.083Z,69.43
2016-04-22T04:18:35.133Z,69.15
2016-04-22T04:19:35.151Z,69.62
2016-04-22T04:20:35.201Z,69.53
2016-04-22T04:21:35.235Z,69.34
2016-04-22T04:22:35.283Z,69.24
2016-04-22T04:23:35.356Z,69.15
2016-04-22T04:24:35.461Z,69.24
2016-04-22T04:25:35.502Z,69.15
2016-04-22T04:26:35.591Z,69.05
2016-04-22T04:27:35.653Z,68.96
2016-04-22T04:28:35.701Z,68.96
2016-04-22T04:29:35.751Z,69.05
2016-04-22T04:30:35.798Z,69.53
2016-04-22T04:31:35.862Z,69.71
2016-04-22T04:32:35.906Z,69.43
2016-04-22T04:33:35.945Z,69.62
2016-04-22T04:34:36.000Z,69.43
2016-04-22T04:35:36.038Z,69.53
2016-04-22T04:36:36.079Z,69.05
2016-04-22T04:37:36.115Z,69.34
2016-04-22T04:38:36.198Z,69.62
2016-04-22T04:39:36.187Z,69.53
2016-04-22T04:40:36.238Z,69.53
2016-04-22T04:41:36.275Z,68.86
2016-04-22T04:42:36.357Z,69.24
2016-04-22T04:43:36.360Z,69.81
2016-04-22T04:44:36.394Z,69.43
2016-04-22T04:45:36.444Z,69.53
2016-04-22T04:46:36.634Z,68.96
2016-04-22T04:47:36.497Z,68.86
2016-04-22T04:48:36.532Z,69.43
2016-04-22T04:49:36.597Z,69.34
2016-04-22T04:50:36.616Z,69.43
2016-04-22T04:51:36.666Z,69.53
2016-04-22T04:52:36.700Z,69.71
2016-04-22T04:53:36.734Z,69.15
2016-04-22T04:54:36.752Z,69.15
2016-04-22T04:55:36.802Z,69.05
2016-04-22T04:56:36.835Z,69.34
2016-04-22T04:57:37.807Z,68.86
2016-04-22T04:58:36.935Z,68.86
2016-04-22T04:59:36.953Z,68.77
2016-04-22T05:00:37.034Z,68.67
2016-04-22T05:01:37.021Z,69.05
2016-04-22T05:02:37.054Z,69.15
2016-04-22T05:03:37.089Z,68.86
2016-04-22T05:04:37.170Z,69.05
2016-04-22T05:05:37.173Z,68.96
2016-04-22T05:06:37.207Z,68.96
2016-04-22T05:07:37.240Z,69.46
2016-04-22T05:08:37.274Z,69.24
2016-04-22T05:09:37.324Z,68.96
2016-04-22T05:10:37.359Z,68.77
2016-04-22T05:11:37.440Z,68.86
2016-04-22T05:12:37.426Z,68.86
2016-04-22T05:13:37.476Z,68.67
2016-04-22T05:14:37.541Z,68.58
2016-04-22T05:15:37.544Z,68.8
2016-04-22T05:16:37.578Z,68.77
2016-04-22T05:17:37.612Z,68.67
2016-04-22T05:18:37.662Z,68.99
2016-04-22T05:19:37.696Z,68.39
2016-04-22T05:20:37.729Z,68.86
2016-04-22T05:21:37.764Z,68.8
2016-04-22T05:22:37.892Z,68.9
2016-04-22T05:23:38.237Z,68.77
2016-04-22T05:24:38.115Z,68.61
2016-04-22T05:25:37.914Z,68.86
2016-04-22T05:26:37.995Z,68.86
2016-04-22T05:27:37.983Z,68.77
2016-04-22T05:28:38.017Z,68.52
2016-04-22T05:29:38.238Z,68.61
2016-04-22T05:30:38.116Z,68.48
2016-04-22T05:31:38.150Z,68.71
2016-04-22T05:32:38.168Z,68.8
2016-04-22T05:33:38.264Z,69.27
2016-04-22T05:34:38.252Z,68.9
2016-04-22T05:35:38.301Z,68.9
2016-04-22T05:36:38.319Z,68.99
2016-04-22T05:37:38.447Z,68.71
2016-04-22T05:38:38.403Z,68.71
2016-04-22T05:39:38.438Z,68.33
2016-04-22T05:40:38.517Z,68.8
2016-04-22T05:41:38.521Z,68.8
2016-04-22T05:42:38.570Z,68.61
2016-04-22T05:43:38.588Z,68.71
2016-04-22T05:44:38.638Z,68.61
2016-04-22T05:45:38.656Z,68.9
2016-04-22T05:46:38.690Z,68.9
2016-04-22T05:47:39.209Z,69.37
2016-04-22T05:48:38.789Z,68.23
2016-04-22T05:49:40.042Z,68.52
2016-04-22T05:50:38.841Z,68.04
2016-04-22T05:51:38.937Z,68.13
2016-04-22T05:52:38.956Z,68.55
2016-04-22T05:53:38.958Z,68.55
2016-04-22T05:54:38.992Z,68.46
2016-04-22T05:55:39.073Z,68.46
2016-04-22T05:56:39.170Z,68.07
2016-04-22T05:57:39.125Z,67.98
2016-04-22T05:58:39.207Z,67.69
2016-04-22T05:59:39.678Z,68.07
2016-04-22T06:00:39.228Z,67.79
2016-04-22T06:01:39.808Z,67.79
2016-04-22T06:02:39.327Z,67.32
2016-04-22T06:03:39.345Z,67.32
2016-04-22T06:04:39.380Z,67.32
2016-04-22T06:05:39.928Z,67.22
2016-04-22T06:06:39.728Z,67.03
2016-04-22T06:07:39.497Z,67.22
2016-04-22T06:08:39.531Z,67.13
2016-04-22T06:09:39.688Z,67.79
2016-04-22T06:10:39.629Z,67.03
2016-04-22T06:11:39.648Z,67.22
2016-04-22T06:12:40.307Z,68.07
2016-04-22T06:13:40.403Z,68.07
2016-04-22T06:14:40.094Z,67.41
2016-04-22T06:15:39.798Z,66.97
2016-04-22T06:16:39.832Z,67.07
2016-04-22T06:17:39.945Z,67.25
2016-04-22T06:18:39.917Z,67.25
2016-04-22T06:19:39.997Z,67.16
2016-04-22T06:20:40.375Z,67.25
2016-04-22T06:21:40.065Z,67.07
2016-04-22T06:22:40.067Z,67.07
2016-04-22T06:23:40.101Z,66.3
2016-04-22T06:24:40.136Z,66.59
2016-04-22T06:25:40.186Z,66.39
2016-04-22T06:26:40.220Z,66.49
2016-04-22T06:27:40.253Z,66.39
2016-04-22T06:28:40.303Z,66.49
2016-04-22T06:29:40.336Z,65.83
2016-04-22T06:30:40.371Z,65.73
2016-04-22T06:31:40.405Z,66.02
2016-04-22T06:32:40.486Z,66.2
2016-04-22T06:33:40.489Z,65.83
2016-04-22T06:34:40.538Z,66.02
2016-04-22T06:35:40.603Z,66.02
2016-04-22T06:36:40.606Z,66.02
2016-04-22T06:37:40.671Z,66.02
2016-04-22T06:38:40.705Z,66.02
2016-04-22T06:39:41.082Z,65.83
2016-04-22T06:40:41.429Z,66.2
2016-04-22T06:41:41.275Z,65.54
2016-04-22T06:42:40.887Z,65.83
2016-04-22T06:43:40.984Z,65.92
2016-04-22T06:44:40.924Z,65.83
2016-04-22T06:45:41.068Z,65.73
2016-04-22T06:46:41.335Z,65.73
2016-04-22T06:47:41.073Z,65.54
2016-04-22T06:48:41.091Z,65.95
2016-04-22T06:49:41.344Z,65.83
2016-04-22T06:50:41.143Z,65.92
2016-04-22T06:51:41.177Z,65.73
2016-04-22T06:52:41.226Z,65.86
2016-04-22T06:53:42.543Z,65.58
2016-04-22T06:54:41.981Z,65.77
2016-04-22T06:55:41.750Z,65.86
2016-04-22T06:56:41.722Z,65.67
2016-04-22T06:57:42.068Z,65.67
2016-04-22T06:58:41.446Z,65.77
2016-04-22T06:59:41.528Z,65.29
2016-04-22T07:00:41.561Z,65.38
2016-04-22T07:01:41.563Z,64.81
2016-04-22T07:02:41.753Z,65
2016-04-22T07:03:41.834Z,64.9
2016-04-22T07:04:41.884Z,64.9
2016-04-22T07:05:45.777Z,64.84
2016-04-22T07:06:42.546Z,64.37
2016-04-22T07:07:41.814Z,64.37
2016-04-22T07:08:41.863Z,63.99
2016-04-22T07:09:41.913Z,63.7
2016-04-22T07:10:41.916Z,63.42
2016-04-22T07:11:41.966Z,63.13
2016-04-22T07:12:43.188Z,63.54
2016-04-22T07:13:42.033Z,63.54
2016-04-22T07:14:42.083Z,63.35
2016-04-22T07:15:42.116Z,62.4
2016-04-22T07:16:42.791Z,61.86
2016-04-22T07:17:42.826Z,61.86
2016-04-22T07:18:42.640Z,61.48
2016-04-22T07:19:42.440Z,62.05
2016-04-22T07:20:42.334Z,61.76
2016-04-22T07:21:42.507Z,60.91
2016-04-22T07:22:42.682Z,61.1
2016-04-22T07:23:42.951Z,61.57
2016-04-22T07:24:42.484Z,61.48
2016-04-22T07:25:42.518Z,60.91
2016-04-22T07:26:42.568Z,60.02
2016-04-22T07:27:42.617Z,60.02
2016-04-22T07:28:42.651Z,60.69
2016-04-22T07:29:42.670Z,60.88
2016-04-22T07:30:42.704Z,60.59
2016-04-22T07:31:42.754Z,60.05
2016-04-22T07:32:42.803Z,59.28
2016-04-22T07:33:42.852Z,58.81
2016-04-22T07:34:42.887Z,59.57
2016-04-22T07:35:42.952Z,58.62
2016-04-22T07:36:43.017Z,58.43
2016-04-22T07:37:44.067Z,58.81
2016-04-22T07:38:43.210Z,59.19
2016-04-22T07:39:43.353Z,59.28
2016-04-22T07:40:43.122Z,59.48
2016-04-22T07:41:43.390Z,58.52
2016-04-22T07:42:43.189Z,58.52
2016-04-22T07:43:43.239Z,58.33
2016-04-22T07:44:43.273Z,58.33
2016-04-22T07:45:43.307Z,58.33
2016-04-22T07:46:43.357Z,58.43
2016-04-22T07:47:43.531Z,58.14
2016-04-22T07:48:43.471Z,57.67
2016-04-22T07:49:43.474Z,57.76
2016-04-22T07:50:43.507Z,57.38
2016-04-22T07:51:43.557Z,56.81
2016-04-22T07:52:43.623Z,56.81
2016-04-22T07:53:43.687Z,56.9
2016-04-22T07:54:43.675Z,56.9
2016-04-22T07:55:43.756Z,56.65
2016-04-22T07:56:43.806Z,56.74
2016-04-22T07:57:43.793Z,55.88
2016-04-22T07:58:43.858Z,55.6
2016-04-22T07:59:43.939Z,55.12
2016-04-22T08:00:43.926Z,55.41
2016-04-22T08:01:43.959Z,55.88
2016-04-22T08:02:43.992Z,55.69
2016-04-22T08:03:43.309Z,55.24
2016-04-22T08:04:45.062Z,54.86
2016-04-22T08:05:44.719Z,54
2016-04-22T08:06:44.161Z,53.78
2016-04-22T08:07:44.975Z,54
2016-04-22T08:08:44.431Z,53.72
2016-04-22T08:09:44.278Z,53.72
2016-04-22T08:10:44.499Z,53.43
2016-04-22T08:11:44.439Z,53.91
2016-04-22T08:12:44.489Z,53.14
2016-04-22T08:13:44.569Z,52.95
2016-04-22T08:14:46.025Z,52.69
2016-04-22T08:15:45.622Z,52.03
2016-04-22T08:16:46.562Z,51.64
2016-04-22T08:17:45.924Z,51.35
2016-04-22T08:18:46.099Z,51.35
2016-04-22T08:19:46.086Z,51.07
2016-04-22T08:20:46.151Z,50.88
2016-04-22T08:21:46.279Z,51.35
2016-04-22T08:22:46.329Z,51.35
2016-04-22T08:23:44.878Z,51.35
2016-04-22T08:24:45.052Z,51.93
2016-04-22T08:25:44.946Z,51.35
2016-04-22T08:26:45.011Z,51.74
2016-04-22T08:27:45.045Z,51.38
2016-04-22T08:28:45.063Z,51.29
2016-04-22T08:29:45.144Z,51.29
2016-04-22T08:30:46.803Z,50.62
2016-04-22T08:31:45.509Z,50.43
2016-04-22T08:32:45.230Z,50.04
2016-04-22T08:33:45.295Z,50.52
2016-04-22T08:34:44.564Z,50.62
2016-04-22T08:35:45.363Z,50.62
2016-04-22T08:36:45.398Z,50.81
2016-04-22T08:37:45.447Z,50.71
2016-04-22T08:38:45.496Z,50.04
2016-04-22T08:39:45.764Z,49.66
2016-04-22T08:40:45.580Z,49.85
2016-04-22T08:41:45.661Z,49.57
2016-04-22T08:42:45.648Z,49.57
2016-04-22T08:43:45.697Z,49.47
2016-04-22T08:44:45.591Z,49.18
2016-04-22T08:45:45.813Z,49.38
2016-04-22T08:46:45.143Z,49.09
2016-04-22T08:47:46.349Z,49.28
2016-04-22T08:48:46.461Z,49.18
2016-04-22T08:49:46.432Z,48.9
2016-04-22T08:50:45.997Z,49.09
2016-04-22T08:51:46.031Z,48.9
2016-04-22T08:52:47.847Z,48.99
2016-04-22T08:53:48.584Z,49.47
2016-04-22T08:54:46.165Z,49.38
2016-04-22T08:55:46.199Z,49.09
2016-04-22T08:56:46.248Z,48.99
2016-04-22T08:57:46.531Z,48.33
2016-04-22T08:58:46.315Z,48.8
2016-04-22T08:59:46.366Z,48.88
2016-04-22T09:00:46.415Z,48.39
2016-04-22T09:01:46.449Z,48.9
2016-04-22T09:02:46.529Z,49.07
2016-04-22T09:03:46.532Z,49.66
2016-04-22T09:04:45.801Z,49.54
2016-04-22T09:05:46.662Z,49.38
2016-04-22T09:06:46.650Z,49.28
2016-04-22T09:07:46.715Z,49.16
2016-04-22T09:08:46.281Z,49.07
2016-04-22T09:09:46.923Z,49.16
2016-04-22T09:10:46.833Z,49.64
2016-04-22T09:11:47.085Z,48.99
2016-04-22T09:12:48.103Z,48.42
2016-04-22T09:13:46.965Z,48.39
2016-04-22T09:14:47.249Z,48.49
2016-04-22T09:15:47.034Z,48.39
2016-04-22T09:16:47.067Z,48.39
2016-04-22T09:17:47.117Z,48.3
2016-04-22T09:18:47.229Z,48.39
2016-04-22T09:19:47.232Z,47.54
2016-04-22T09:20:47.672Z,47.25
2016-04-22T09:21:46.690Z,47.27
2016-04-22T09:22:47.427Z,47.34
2016-04-22T09:23:47.421Z,46.97
2016-04-22T09:24:47.455Z,46.99
2016-04-22T09:25:47.489Z,46.8
2016-04-22T09:26:47.476Z,46.51
2016-04-22T09:27:47.510Z,46.48
2016-04-22T09:28:47.560Z,46.99
2016-04-22T09:29:47.766Z,46.99
2016-04-22T09:30:47.643Z,46.89
2016-04-22T09:31:47.756Z,46.42
2016-04-22T09:32:47.711Z,46.42
2016-04-22T09:33:48.151Z,46.32
2016-04-22T09:34:47.325Z,46.32
2016-04-22T09:35:47.970Z,45.94
2016-04-22T09:36:48.003Z,46.51
2016-04-22T09:37:47.945Z,46.51
2016-04-22T09:38:47.962Z,46.42
2016-04-22T09:39:48.012Z,46.42
2016-04-22T09:40:48.046Z,46.42
2016-04-22T09:41:48.127Z,46.32
2016-04-22T09:42:48.145Z,46.32
2016-04-22T09:43:48.257Z,46.22
2016-04-22T09:44:48.228Z,46.44
2016-04-22T09:45:48.403Z,46.25
2016-04-22T09:46:49.656Z,46.53
2016-04-22T09:47:48.925Z,46.06
2016-04-22T09:48:49.239Z,45.67
2016-04-22T09:49:49.367Z,44.91
2016-04-22T09:50:49.573Z,43.88
2016-04-22T09:51:48.904Z,44.65
2016-04-22T09:52:49.046Z,44.84
2016-04-22T09:53:50.659Z,44.74
2016-04-22T09:54:48.740Z,44.65
2016-04-22T09:55:48.962Z,44.84
2016-04-22T09:56:49.574Z,43.98
2016-04-22T09:57:49.357Z,43.59
2016-04-22T09:58:48.563Z,43.3
2016-04-22T09:59:49.565Z,43.4
2016-04-22T10:00:50.396Z,43.3
2016-04-22T10:01:49.009Z,43.3
2016-04-22T10:02:49.011Z,43.3
2016-04-22T10:03:49.640Z,43.98
2016-04-22T10:04:49.828Z,43.5
2016-04-22T10:05:49.332Z,43.71
2016-04-22T10:06:50.256Z,43.33
2016-04-22T10:07:49.353Z,43.23
2016-04-22T10:13:43.165Z,42.13
2016-04-22T10:14:42.918Z,41.94
2016-04-22T10:15:43.265Z,41.77
2016-04-22T10:16:43.002Z,41.19
2016-04-22T10:17:42.973Z,40.64
2016-04-22T10:18:43.335Z,39.33
2016-04-22T10:19:42.947Z,38.22
2016-04-22T10:20:43.654Z,36.72
2016-04-22T10:21:43.437Z,34.08
2016-04-22T10:22:43.955Z,31.7
2016-04-22T10:23:43.317Z,29.34
2016-04-22T10:24:44.445Z,27.14
2016-04-22T10:25:43.620Z,25.15
2016-04-22T10:26:43.434Z,23.53
2016-04-22T10:27:42.687Z,22.3
2016-04-22T10:28:43.862Z,20.47
2016-04-22T10:29:43.896Z,19.32
2016-04-22T10:30:44.523Z,18.37
2016-04-22T10:31:44.542Z,17.03
2016-04-22T10:32:43.029Z,16.16
2016-04-22T10:33:44.735Z,14.91
2016-04-22T10:34:44.910Z,14.34
2016-04-22T10:35:44.069Z,12.7
2016-04-22T10:36:44.149Z,12.02
2016-04-22T10:37:44.136Z,9.88
2016-04-22T10:38:44.280Z,8.91
2016-04-22T10:39:44.376Z,9.02
2016-04-22T10:40:44.753Z,8.14
2016-04-22T10:41:44.678Z,7.37
2016-04-22T10:42:45.103Z,6.48
2016-04-22T10:43:44.559Z,5.6
2016-04-22T10:44:44.827Z,5.01
2016-04-22T10:45:44.830Z,4.33
2016-04-22T10:46:45.551Z,4.72
2016-04-22T10:47:44.835Z,4.63
2016-04-22T10:48:44.729Z,4.53
2016-04-22T10:49:45.543Z,3.75
2016-04-22T10:50:44.859Z,3.45
2016-04-22T10:51:44.845Z,3.65
2016-04-22T10:52:44.848Z,3.25
2016-04-22T10:53:44.882Z,2.07
2016-04-22T10:54:45.276Z,2.17
2016-04-22T10:55:45.809Z,2.07
2016-04-22T10:56:45.671Z,1.58
2016-04-22T10:57:45.128Z,2.17
2016-04-22T10:58:44.505Z,0.98
2016-04-22T10:59:45.258Z,1.58
2016-04-22T11:00:45.651Z,1.28
2016-04-22T11:01:46.607Z,1.87
2016-04-22T11:02:45.437Z,1.87
2016-04-22T11:03:45.628Z,0.89
2016-04-22T11:04:45.567Z,0.59
2016-04-22T11:05:45.618Z,1.28
2016-04-22T11:06:45.559Z,1.68
2016-04-22T11:07:45.639Z,1.38
2016-04-22T11:08:45.688Z,1.68
2016-04-22T11:09:45.331Z,2.07
2016-04-22T11:10:45.788Z,1.78
2016-04-22T11:11:46.008Z,1.28
2016-04-22T11:12:45.933Z,1.68
2016-04-22T11:13:45.983Z,1.28
2016-04-22T11:14:46.049Z,1.28
2016-04-22T11:15:46.207Z,0.29
2016-04-22T11:16:46.163Z,0
2016-04-22T11:17:46.227Z,0.1
2016-04-22T11:18:46.293Z,0
2016-04-22T11:19:46.343Z,0
2016-04-22T11:20:46.424Z,0
2016-04-22T11:21:46.622Z,0.39
2016-04-22T11:22:49.717Z,0.98
2016-04-22T11:23:46.642Z,1.28
2016-04-22T11:24:46.629Z,1.28
2016-04-22T11:25:47.319Z,1.48
2016-04-22T11:26:46.915Z,1.57
2016-04-22T11:27:46.825Z,0.49
2016-04-22T11:28:47.562Z,0.59
2016-04-22T11:29:46.861Z,0.39
2016-04-22T11:30:47.005Z,0.59
2016-04-22T11:31:47.054Z,0.59
2016-04-22T11:32:47.136Z,0.2
2016-04-22T11:33:47.216Z,0.59
2016-04-22T11:34:47.280Z,0.1
2016-04-22T11:35:46.550Z,0
2016-04-22T11:36:47.380Z,0
2016-04-22T11:37:47.476Z,0
2016-04-22T11:38:47.510Z,0
2016-04-22T11:39:47.575Z,0
2016-04-22T11:40:47.625Z,0
2016-04-22T11:41:48.065Z,0
2016-04-22T11:42:47.755Z,0.49
2016-04-22T11:43:47.821Z,0.98
2016-04-22T11:44:47.918Z,0.98
2016-04-22T11:45:47.951Z,0.59
2016-04-22T11:46:48.000Z,0.69
2016-04-22T11:47:48.065Z,0.69
2016-04-22T11:48:48.162Z,0.99
2016-04-22T11:49:48.196Z,0.59
2016-04-22T11:50:48.401Z,0.59
2016-04-22T11:51:48.326Z,0.29
2016-04-22T11:52:48.392Z,0.29
2016-04-22T11:53:48.442Z,0.2
2016-04-22T11:54:48.506Z,0.1
2016-04-22T11:55:48.618Z,0
2016-04-22T11:56:48.714Z,0
2016-04-22T11:57:48.703Z,0
2016-04-22T11:58:48.767Z,0.1
2016-04-22T11:59:48.833Z,0
2016-04-22T12:00:48.898Z,0
2016-04-22T12:01:48.947Z,0
2016-04-22T12:02:49.059Z,0
2016-04-22T12:03:49.094Z,0
2016-04-22T12:04:49.377Z,0
2016-04-22T12:05:49.255Z,0.39
2016-04-22T12:06:49.289Z,0.39
2016-04-22T12:07:49.354Z,0.49
2016-04-22T12:08:49.419Z,0.2
2016-04-22T12:09:49.500Z,0.1
2016-04-22T12:10:49.549Z,0.1
2016-04-22T12:11:48.833Z,0
2016-04-22T12:12:49.679Z,0.2
2016-04-22T12:13:49.729Z,0.1
2016-04-22T12:14:49.794Z,0.29
2016-04-22T12:15:49.860Z,0.29
2016-04-22T12:16:49.941Z,0
2016-04-22T12:17:49.991Z,0
2016-04-22T12:18:50.071Z,0
2016-04-22T12:19:50.169Z,0
2016-04-22T12:20:51.016Z,0
2016-04-22T12:21:51.909Z,0
2016-04-22T12:22:50.318Z,0
2016-04-22T12:23:50.430Z,0
2016-04-22T12:24:51.370Z,0
2016-04-22T12:25:50.513Z,0
2016-04-22T12:26:50.610Z,0
2016-04-22T12:27:50.660Z,0
2016-04-22T12:28:51.256Z,0
2016-04-22T12:29:50.025Z,0.1
2016-04-22T12:30:51.933Z,0.2
2016-04-22T12:31:50.905Z,0.1
2016-04-22T12:32:51.001Z,0.2
2016-04-22T12:33:51.019Z,0.1
2016-04-22T12:34:51.132Z,0.39
2016-04-22T12:35:51.150Z,0.29
2016-04-22T12:36:51.216Z,0.1
2016-04-22T12:37:51.280Z,0.29
2016-04-22T12:38:51.346Z,0
2016-04-22T12:39:51.411Z,0.1
2016-04-22T12:40:51.476Z,0.69
2016-04-22T12:41:51.541Z,0.39
2016-04-22T12:42:51.653Z,0.89
2016-04-22T12:43:52.031Z,1.18
2016-04-22T12:44:51.924Z,0.79
2016-04-22T12:45:51.942Z,0.39
2016-04-22T12:46:51.992Z,0.2
2016-04-22T12:47:51.916Z,0.29
2016-04-22T12:48:51.997Z,0.49
2016-04-22T12:49:52.031Z,1.09
2016-04-22T12:50:52.097Z,0.29
2016-04-22T12:51:52.849Z,0.1
2016-04-22T12:52:52.228Z,0
2016-04-22T12:53:53.511Z,0
2016-04-22T12:54:52.357Z,0.2
2016-04-22T12:55:55.594Z,0
2016-04-22T12:56:52.503Z,0
2016-04-22T12:57:52.553Z,0.39
2016-04-22T12:58:52.775Z,0.49
2016-04-22T12:59:52.684Z,0.59
2016-04-22T13:00:52.764Z,0.79
2016-04-22T13:01:52.813Z,0.79
2016-04-22T13:02:52.910Z,0.59
2016-04-22T13:03:52.928Z,0.79
2016-04-22T13:04:53.108Z,0.1
2016-04-22T13:05:53.313Z,0.29
2016-04-22T13:06:53.160Z,0
2016-04-22T13:07:53.179Z,0.2
2016-04-22T13:08:53.259Z,0.59
2016-04-22T13:09:53.481Z,0.39